createdAt,value
2023-05-14T00:01:46.497Z,100.00
2023-05-14T00:04:31.584Z,100.00
2023-05-14T00:07:16.815Z,100.00
2023-05-14T00:10:01.975Z,100.00
2023-05-14T00:12:46.899Z,100.00
2023-05-14T00:15:34.184Z,100.00
2023-05-14T00:18:19.637Z,100.00
2023-05-14T00:21:04.531Z,100.00
2023-05-14T00:23:49.501Z,100.00
2023-05-14T00:26:34.327Z,100.00
2023-05-14T00:29:19.405Z,100.00
2023-05-14T00:32:04.847Z,100.00
2023-05-14T00:34:49.891Z,100.00
2023-05-14T00:37:36.333Z,100.00
2023-05-14T00:40:26.646Z,100.00
2023-05-14T00:43:11.901Z,100.00
2023-05-14T00:45:57.036Z,100.00
2023-05-14T00:48:42.265Z,100.00
2023-05-14T00:51:27.638Z,100.00
2023-05-14T00:54:15.986Z,100.00
2023-05-14T00:57:02.427Z,100.00
2023-05-14T00:59:47.553Z,100.00
2023-05-14T01:02:32.794Z,100.00
2023-05-14T01:05:18.403Z,100.00
2023-05-14T01:08:22.307Z,100.00
2023-05-14T01:11:09.066Z,100.00
2023-05-14T01:14:24.584Z,100.00
2023-05-14T01:17:13.094Z,100.00
2023-05-14T01:20:00.273Z,100.00
2023-05-14T01:22:45.800Z,100.00
2023-05-14T01:25:31.396Z,100.00
2023-05-14T01:28:18.243Z,100.00
2023-05-14T01:31:08.222Z,100.00
2023-05-14T01:33:56.493Z,100.00
2023-05-14T01:36:42.758Z,100.00
2023-05-14T01:39:28.237Z,100.00
2023-05-14T01:42:13.526Z,100.00
2023-05-14T01:44:59.322Z,100.00
2023-05-14T01:47:44.506Z,100.00
2023-05-14T01:50:29.426Z,100.00
2023-05-14T01:53:14.442Z,100.00
2023-05-14T01:55:59.352Z,100.00
2023-05-14T01:58:44.282Z,100.00
2023-05-14T02:01:29.368Z,100.00
2023-05-14T02:04:14.852Z,100.00
2023-05-14T02:07:00.445Z,100.00
2023-05-14T02:09:45.942Z,100.00
2023-05-14T02:12:30.965Z,100.00
2023-05-14T02:15:16.356Z,100.00
2023-05-14T02:18:01.622Z,100.00
2023-05-14T02:20:47.000Z,100.00
2023-05-14T02:23:41.052Z,100.00
2023-05-14T02:26:27.204Z,100.00
2023-05-14T02:29:12.700Z,100.00
2023-05-14T02:31:57.762Z,100.00
2023-05-14T02:34:42.515Z,100.00
2023-05-14T02:37:27.458Z,100.00
2023-05-14T02:40:12.406Z,100.00
2023-05-14T02:42:57.686Z,100.00
2023-05-14T02:45:43.008Z,100.00
2023-05-14T02:48:27.964Z,100.00
2023-05-14T02:51:12.967Z,100.00
2023-05-14T02:53:57.831Z,100.00
2023-05-14T02:56:42.961Z,100.00
2023-05-14T02:59:27.835Z,100.00
2023-05-14T03:02:13.747Z,100.00
2023-05-14T03:04:59.181Z,100.00
2023-05-14T03:07:44.192Z,100.00
2023-05-14T03:10:29.414Z,100.00
2023-05-14T03:13:17.844Z,100.00
2023-05-14T03:16:02.861Z,100.00
2023-05-14T03:18:47.942Z,100.00
2023-05-14T03:21:33.062Z,100.00
2023-05-14T03:24:18.353Z,100.00
2023-05-14T03:27:03.317Z,100.00
2023-05-14T03:29:48.681Z,100.00
2023-05-14T03:32:33.640Z,100.00
2023-05-14T03:35:19.066Z,100.00
2023-05-14T03:38:04.529Z,100.00
2023-05-14T03:40:49.827Z,100.00
2023-05-14T03:43:35.123Z,100.00
2023-05-14T03:46:20.040Z,100.00
2023-05-14T03:49:05.243Z,100.00
2023-05-14T03:51:50.663Z,100.00
2023-05-14T03:54:35.860Z,100.00
2023-05-14T03:57:21.262Z,100.00
2023-05-14T04:00:07.228Z,100.00
2023-05-14T04:02:52.202Z,100.00
2023-05-14T04:05:37.180Z,100.00
2023-05-14T04:08:22.464Z,100.00
2023-05-14T04:11:08.280Z,100.00
2023-05-14T04:13:53.237Z,100.00
2023-05-14T04:16:38.610Z,100.00
2023-05-14T04:19:23.669Z,100.00
2023-05-14T04:22:08.927Z,100.00
2023-05-14T04:24:54.131Z,100.00
2023-05-14T04:27:39.783Z,100.00
2023-05-14T04:30:25.334Z,100.00
2023-05-14T04:33:10.373Z,100.00
2023-05-14T04:35:55.924Z,100.00
2023-05-14T04:38:41.461Z,100.00
2023-05-14T04:41:26.550Z,100.00
2023-05-14T04:44:12.930Z,100.00
2023-05-14T04:46:58.017Z,100.00
2023-05-14T04:49:43.371Z,100.00
2023-05-14T04:52:28.539Z,100.00
2023-05-14T04:55:13.309Z,100.00
2023-05-14T04:57:58.259Z,100.00
2023-05-14T05:00:43.688Z,100.00
2023-05-14T05:03:28.750Z,100.00
2023-05-14T05:06:13.898Z,100.00
2023-05-14T05:09:01.257Z,100.00
2023-05-14T05:11:46.857Z,100.00
2023-05-14T05:14:31.761Z,100.00
2023-05-14T05:17:16.879Z,100.00
2023-05-14T05:20:02.057Z,100.00
2023-05-14T05:22:47.065Z,100.00
2023-05-14T05:25:31.971Z,100.00
2023-05-14T05:28:17.303Z,100.00
2023-05-14T05:31:02.589Z,100.00
2023-05-14T05:33:47.930Z,100.00
2023-05-14T05:36:33.808Z,100.00
2023-05-14T05:39:19.109Z,100.00
2023-05-14T05:42:05.485Z,100.00
2023-05-14T05:44:50.742Z,100.00
2023-05-14T05:47:36.245Z,100.00
2023-05-14T05:50:21.757Z,100.00
2023-05-14T05:53:07.129Z,100.00
2023-05-14T05:55:52.134Z,100.00
2023-05-14T05:58:40.541Z,100.00
2023-05-14T06:01:26.619Z,100.00
2023-05-14T06:04:11.489Z,100.00
2023-05-14T06:06:56.385Z,100.00
2023-05-14T06:09:41.253Z,100.00
2023-05-14T06:12:26.258Z,100.00
2023-05-14T06:15:12.228Z,100.00
2023-05-14T06:17:57.588Z,100.00
2023-05-14T06:20:42.851Z,100.00
2023-05-14T06:23:28.045Z,100.00
2023-05-14T06:26:13.090Z,100.00
2023-05-14T06:28:59.098Z,100.00
2023-05-14T06:31:44.342Z,100.00
2023-05-14T06:34:30.116Z,100.00
2023-05-14T06:37:15.021Z,100.00
2023-05-14T06:40:01.230Z,100.00
2023-05-14T06:42:46.410Z,100.00
2023-05-14T06:45:33.217Z,100.00
2023-05-14T06:48:19.148Z,100.00
2023-05-14T06:51:04.391Z,100.00
2023-05-14T06:53:49.675Z,100.00
2023-05-14T06:56:35.084Z,100.00
2023-05-14T06:59:20.355Z,100.00
2023-05-14T07:02:05.918Z,100.00
2023-05-14T07:04:51.088Z,100.00
2023-05-14T07:07:36.229Z,100.00
2023-05-14T07:10:21.723Z,100.00
2023-05-14T07:13:08.204Z,100.00
2023-05-14T07:15:55.572Z,100.00
2023-05-14T07:18:40.933Z,100.00
2023-05-14T07:21:26.114Z,100.00
2023-05-14T07:24:11.092Z,100.00
2023-05-14T07:26:57.235Z,100.00
2023-05-14T07:29:42.561Z,100.00
2023-05-14T07:32:27.961Z,100.00
2023-05-14T07:35:13.022Z,100.00
2023-05-14T07:37:58.439Z,100.00
2023-05-14T07:40:43.719Z,100.00
2023-05-14T07:43:28.933Z,100.00
2023-05-14T07:46:14.704Z,100.00
2023-05-14T07:48:59.552Z,100.00
2023-05-14T07:51:44.646Z,100.00
2023-05-14T07:54:29.550Z,100.00
2023-05-14T07:57:14.484Z,100.00
2023-05-14T07:59:59.669Z,100.00
2023-05-14T08:02:45.059Z,100.00
2023-05-14T08:05:31.448Z,100.00
2023-05-14T08:08:17.079Z,100.00
2023-05-14T08:11:03.552Z,100.00
2023-05-14T08:13:48.689Z,100.00
2023-05-14T08:16:33.974Z,100.00
2023-05-14T08:19:19.312Z,100.00
2023-05-14T08:22:05.017Z,100.00
2023-05-14T08:24:49.975Z,100.00
2023-05-14T08:27:35.105Z,100.00
2023-05-14T08:30:21.326Z,100.00
2023-05-14T08:33:06.730Z,100.00
2023-05-14T08:35:53.005Z,100.00
2023-05-14T08:38:38.297Z,100.00
2023-05-14T08:41:23.372Z,100.00
2023-05-14T08:44:20.067Z,100.00
2023-05-14T08:47:06.802Z,100.00
2023-05-14T08:50:04.271Z,100.00
2023-05-14T08:52:49.759Z,100.00
2023-05-14T08:55:36.260Z,100.00
2023-05-14T08:58:21.294Z,100.00
2023-05-14T09:01:06.669Z,100.00
2023-05-14T09:03:53.870Z,100.00
2023-05-14T09:06:40.037Z,100.00
2023-05-14T09:09:26.650Z,100.00
2023-05-14T09:12:11.977Z,100.00
2023-05-14T09:14:56.829Z,100.00
2023-05-14T09:17:41.750Z,100.00
2023-05-14T09:20:28.533Z,100.00
2023-05-14T09:23:13.918Z,100.00
2023-05-14T09:25:58.987Z,100.00
2023-05-14T09:28:44.694Z,100.00
2023-05-14T09:31:31.702Z,99.17
2023-05-14T09:34:30.502Z,98.39
2023-05-14T09:37:15.704Z,97.11
2023-05-14T09:40:06.560Z,95.51
2023-05-14T09:42:51.462Z,95.69
2023-05-14T09:45:36.685Z,94.84
2023-05-14T09:48:22.923Z,94.09
2023-05-14T09:51:10.005Z,93.40
2023-05-14T09:53:55.025Z,91.82
2023-05-14T09:56:40.740Z,91.79
2023-05-14T09:59:25.877Z,90.89
2023-05-14T10:02:25.722Z,89.27
2023-05-14T10:05:13.119Z,87.77
2023-05-14T10:08:00.011Z,87.13
2023-05-14T10:10:46.744Z,85.02
2023-05-14T10:13:39.352Z,84.19
2023-05-14T10:16:32.002Z,84.82
2023-05-14T10:19:20.802Z,81.42
2023-05-14T10:22:11.201Z,81.91
2023-05-14T10:24:56.855Z,79.43
2023-05-14T10:27:42.351Z,78.75
2023-05-14T10:30:27.631Z,79.04
2023-05-14T10:33:15.455Z,76.91
2023-05-14T10:36:05.945Z,77.48
2023-05-14T10:38:55.946Z,77.61
2023-05-14T10:41:41.583Z,76.33
2023-05-14T10:44:27.059Z,75.87
2023-05-14T10:47:11.995Z,75.84
2023-05-14T10:49:59.864Z,75.97
2023-05-14T10:52:46.279Z,74.74
2023-05-14T10:55:31.316Z,72.14
2023-05-14T10:58:16.319Z,71.70
2023-05-14T11:01:02.131Z,72.11
2023-05-14T11:03:47.208Z,69.95
2023-05-14T11:06:33.036Z,71.41
2023-05-14T11:09:20.826Z,71.95
2023-05-14T11:12:06.410Z,70.91
2023-05-14T11:14:51.858Z,69.86
2023-05-14T11:17:38.516Z,69.20
2023-05-14T11:20:23.823Z,68.68
2023-05-14T11:23:09.149Z,68.90
2023-05-14T11:25:56.176Z,66.98
2023-05-14T11:28:41.519Z,65.84
2023-05-14T11:31:27.632Z,64.51
2023-05-14T11:34:12.575Z,64.38
2023-05-14T11:36:57.399Z,64.26
2023-05-14T11:39:50.576Z,64.43
2023-05-14T11:42:37.174Z,64.26
2023-05-14T11:45:29.832Z,64.18
2023-05-14T11:48:15.012Z,61.89
2023-05-14T11:51:00.338Z,62.32
2023-05-14T11:53:46.403Z,61.19
2023-05-14T11:56:31.814Z,59.26
2023-05-14T11:59:17.666Z,59.54
2023-05-14T12:02:05.061Z,58.48
2023-05-14T12:04:57.634Z,58.10
2023-05-14T12:07:44.941Z,58.04
2023-05-14T12:10:30.052Z,57.23
2023-05-14T12:13:17.304Z,57.25
2023-05-14T12:16:02.964Z,56.16
2023-05-14T12:18:48.448Z,57.05
2023-05-14T12:21:34.806Z,57.46
2023-05-14T12:24:20.071Z,56.45
2023-05-14T12:27:05.654Z,56.26
2023-05-14T12:30:01.953Z,57.04
2023-05-14T12:32:54.571Z,55.65
2023-05-14T12:35:40.129Z,54.28
2023-05-14T12:38:25.462Z,53.85
2023-05-14T12:41:10.333Z,53.18
2023-05-14T12:43:55.414Z,52.82
2023-05-14T12:46:40.521Z,54.08
2023-05-14T12:49:25.878Z,54.07
2023-05-14T12:54:59.078Z,52.22
2023-05-14T12:57:44.343Z,52.43
2023-05-14T13:00:29.725Z,54.31
2023-05-14T13:03:15.175Z,53.10
2023-05-14T13:06:00.448Z,50.87
2023-05-14T13:08:46.107Z,49.63
2023-05-14T13:11:32.108Z,51.63
2023-05-14T13:14:18.422Z,50.34
2023-05-14T13:17:05.900Z,50.36
2023-05-14T13:19:51.112Z,49.63
2023-05-14T13:22:36.110Z,48.08
2023-05-14T13:25:21.448Z,48.40
2023-05-14T13:28:06.861Z,48.35
2023-05-14T13:31:12.442Z,47.23
2023-05-14T13:33:59.321Z,47.79
2023-05-14T13:36:44.704Z,47.05
2023-05-14T13:39:29.887Z,47.33
2023-05-14T13:42:14.785Z,45.06
2023-05-14T13:45:00.013Z,45.77
2023-05-14T13:47:44.880Z,45.96
2023-05-14T13:50:29.660Z,45.12
2023-05-14T13:53:14.648Z,44.94
2023-05-14T13:56:01.618Z,44.75
2023-05-14T13:58:46.471Z,44.37
2023-05-14T14:01:31.981Z,44.12
2023-05-14T14:04:17.644Z,44.19
2023-05-14T14:07:03.334Z,43.79
2023-05-14T14:09:48.447Z,43.74
2023-05-14T14:12:33.607Z,44.09
2023-05-14T14:15:18.532Z,45.54
2023-05-14T14:18:03.735Z,45.49
2023-05-14T14:20:49.085Z,45.52
2023-05-14T14:23:34.247Z,45.65
2023-05-14T14:26:19.185Z,44.67
2023-05-14T14:29:04.260Z,44.91
2023-05-14T14:31:49.736Z,45.12
2023-05-14T14:34:35.079Z,44.19
2023-05-14T14:37:21.307Z,44.38
2023-05-14T14:40:09.922Z,45.55
2023-05-14T14:42:55.248Z,43.94
2023-05-14T14:45:40.518Z,44.78
2023-05-14T14:48:28.781Z,43.73
2023-05-14T14:51:13.859Z,44.84
2023-05-14T14:53:58.851Z,44.94
2023-05-14T14:56:45.838Z,45.26
2023-05-14T14:59:30.992Z,44.28
2023-05-14T15:02:16.242Z,43.97
2023-05-14T15:05:01.641Z,43.86
2023-05-14T15:07:46.794Z,44.61
2023-05-14T15:10:32.131Z,45.48
2023-05-14T15:13:17.590Z,45.53
2023-05-14T15:16:02.758Z,46.47
2023-05-14T15:18:47.833Z,45.93
2023-05-14T15:21:33.970Z,46.75
2023-05-14T15:24:19.349Z,47.06
2023-05-14T15:27:04.720Z,46.94
2023-05-14T15:29:49.889Z,46.33
2023-05-14T15:32:34.896Z,47.31
2023-05-14T15:35:20.128Z,46.21
2023-05-14T15:38:06.892Z,45.34
2023-05-14T15:40:51.932Z,45.05
2023-05-14T15:43:37.070Z,44.79
2023-05-14T15:46:23.474Z,45.35
2023-05-14T15:49:08.506Z,43.59
2023-05-14T15:51:53.522Z,44.07
2023-05-14T15:54:38.781Z,44.35
2023-05-14T15:57:23.948Z,44.53
2023-05-14T16:00:12.584Z,43.16
2023-05-14T16:02:57.562Z,42.18
2023-05-14T16:05:42.989Z,40.78
2023-05-14T16:08:27.948Z,40.04
2023-05-14T16:11:12.887Z,40.22
2023-05-14T16:13:58.433Z,39.43
2023-05-14T16:16:43.870Z,39.40
2023-05-14T16:19:29.096Z,37.95
2023-05-14T16:22:13.943Z,39.54
2023-05-14T16:25:00.190Z,40.30
2023-05-14T16:27:46.759Z,40.64
2023-05-14T16:30:31.818Z,40.55
2023-05-14T16:33:17.140Z,41.38
2023-05-14T16:36:02.045Z,41.41
2023-05-14T16:39:06.225Z,40.99
2023-05-14T16:41:52.440Z,41.89
2023-05-14T16:44:37.478Z,41.09
2023-05-14T16:47:22.936Z,41.49
2023-05-14T16:50:08.398Z,41.91
2023-05-14T16:52:53.384Z,41.32
2023-05-14T16:55:38.563Z,41.26
2023-05-14T16:58:23.467Z,42.52
2023-05-14T17:01:09.770Z,41.99
2023-05-14T17:03:55.295Z,42.63
2023-05-14T17:06:40.529Z,43.15
2023-05-14T17:09:25.570Z,43.12
2023-05-14T17:12:12.780Z,42.94
2023-05-14T17:14:58.436Z,42.76
2023-05-14T17:17:43.766Z,43.11
2023-05-14T17:20:28.987Z,42.38
2023-05-14T17:23:14.140Z,43.03
2023-05-14T17:25:59.403Z,43.73
2023-05-14T17:28:44.773Z,44.08
2023-05-14T17:31:29.768Z,44.30
2023-05-14T17:34:15.310Z,44.23
2023-05-14T17:37:00.939Z,44.27
2023-05-14T17:39:45.918Z,44.80
2023-05-14T17:42:31.100Z,44.56
2023-05-14T17:45:20.565Z,44.68
2023-05-14T17:48:05.946Z,45.43
2023-05-14T17:50:54.174Z,46.99
2023-05-14T17:53:39.100Z,52.28
2023-05-14T17:56:24.619Z,55.92
2023-05-14T17:59:09.774Z,57.96
2023-05-14T18:01:54.769Z,59.78
2023-05-14T18:04:39.787Z,61.67
2023-05-14T18:07:24.954Z,63.20
2023-05-14T18:10:10.483Z,63.87
2023-05-14T18:12:56.239Z,65.30
2023-05-14T18:15:41.476Z,66.61
2023-05-14T18:18:26.778Z,67.18
2023-05-14T18:21:11.900Z,68.17
2023-05-14T18:23:56.895Z,68.56
2023-05-14T18:26:42.319Z,68.92
2023-05-14T18:29:27.829Z,69.78
2023-05-14T18:32:12.973Z,70.28
2023-05-14T18:34:58.045Z,70.13
2023-05-14T18:37:43.093Z,70.58
2023-05-14T18:40:28.148Z,70.82
2023-05-14T18:43:13.552Z,72.16
2023-05-14T18:45:58.917Z,73.62
2023-05-14T18:48:44.239Z,74.54
2023-05-14T18:51:29.567Z,74.77
2023-05-14T18:54:14.613Z,75.28
2023-05-14T18:57:00.756Z,76.04
2023-05-14T18:59:45.774Z,76.13
2023-05-14T19:02:31.275Z,76.78
2023-05-14T19:05:16.540Z,77.08
2023-05-14T19:08:01.918Z,78.36
2023-05-14T19:10:47.086Z,79.25
2023-05-14T19:13:32.376Z,79.57
2023-05-14T19:16:17.529Z,80.54
2023-05-14T19:19:03.127Z,81.28
2023-05-14T19:21:48.044Z,81.92
2023-05-14T19:24:33.172Z,83.24
2023-05-14T19:27:18.400Z,83.52
2023-05-14T19:30:03.811Z,84.49
2023-05-14T19:32:49.278Z,85.43
2023-05-14T19:35:34.590Z,85.74
2023-05-14T19:38:19.760Z,86.34
2023-05-14T19:41:04.755Z,87.00
2023-05-14T19:43:49.701Z,87.67
2023-05-14T19:46:35.113Z,88.09
2023-05-14T19:49:20.307Z,88.04
2023-05-14T19:52:05.701Z,88.66
2023-05-14T19:54:50.829Z,89.67
2023-05-14T19:57:37.153Z,90.06
2023-05-14T20:00:22.839Z,90.74
2023-05-14T20:03:07.983Z,91.69
2023-05-14T20:05:54.057Z,92.44
2023-05-14T20:08:39.040Z,93.55
2023-05-14T20:11:24.085Z,94.23
2023-05-14T20:14:09.111Z,94.44
2023-05-14T20:16:54.088Z,94.91
2023-05-14T20:19:39.165Z,95.69
2023-05-14T20:22:23.925Z,96.19
2023-05-14T20:25:10.041Z,95.93
2023-05-14T20:27:55.454Z,97.00
2023-05-14T20:30:40.683Z,97.32
2023-05-14T20:33:26.399Z,97.92
2023-05-14T20:36:11.745Z,98.63
2023-05-14T20:38:57.107Z,98.63
2023-05-14T20:41:42.076Z,99.39
2023-05-14T20:44:27.126Z,99.80
2023-05-14T20:47:16.259Z,100.00
2023-05-14T20:50:01.698Z,100.00
2023-05-14T20:52:46.816Z,100.00
2023-05-14T20:55:32.307Z,100.00
2023-05-14T20:58:17.190Z,100.00
2023-05-14T21:01:03.410Z,100.00
2023-05-14T21:03:48.577Z,100.00
2023-05-14T21:06:33.691Z,100.00
2023-05-14T21:09:20.843Z,100.00
2023-05-14T21:12:06.344Z,100.00
2023-05-14T21:14:51.605Z,100.00
2023-05-14T21:17:36.511Z,100.00
2023-05-14T21:20:21.534Z,100.00
2023-05-14T21:23:06.651Z,100.00
2023-05-14T21:25:54.589Z,100.00
2023-05-14T21:28:39.928Z,100.00
2023-05-14T21:31:25.175Z,100.00
2023-05-14T21:34:10.617Z,100.00
2023-05-14T21:36:56.035Z,100.00
2023-05-14T21:39:41.129Z,100.00
2023-05-14T21:42:26.192Z,100.00
2023-05-14T21:45:11.339Z,100.00
2023-05-14T21:47:56.731Z,100.00
2023-05-14T21:50:42.355Z,100.00
2023-05-14T21:53:27.346Z,100.00
2023-05-14T21:56:12.288Z,100.00
2023-05-14T21:58:57.218Z,100.00
2023-05-14T22:02:04.856Z,100.00
2023-05-14T22:04:47.674Z,100.00
2023-05-14T22:07:32.826Z,100.00
2023-05-14T22:10:18.981Z,100.00
2023-05-14T22:13:04.146Z,100.00
2023-05-14T22:15:51.386Z,100.00
2023-05-14T22:18:40.823Z,100.00
2023-05-14T22:21:25.917Z,100.00
2023-05-14T22:24:10.785Z,100.00
2023-05-14T22:26:56.001Z,100.00
2023-05-14T22:29:41.488Z,100.00
2023-05-14T22:32:26.793Z,100.00
2023-05-14T22:35:12.693Z,100.00
2023-05-14T22:37:57.878Z,100.00
2023-05-14T22:40:42.957Z,100.00
2023-05-14T22:43:28.011Z,100.00
2023-05-14T22:46:13.405Z,100.00
2023-05-14T22:48:58.662Z,100.00
2023-05-14T22:51:43.833Z,100.00
2023-05-14T22:54:28.667Z,100.00
2023-05-14T22:57:13.684Z,100.00
2023-05-14T22:59:58.961Z,100.00
2023-05-14T23:02:44.479Z,100.00
2023-05-14T23:05:29.893Z,100.00
2023-05-14T23:08:14.741Z,100.00
2023-05-14T23:11:00.847Z,100.00
2023-05-14T23:13:46.161Z,100.00
2023-05-14T23:16:31.830Z,100.00
2023-05-14T23:19:17.251Z,100.00
2023-05-14T23:22:02.723Z,100.00
2023-05-14T23:24:48.061Z,100.00
2023-05-14T23:27:34.189Z,100.00
2023-05-14T23:30:19.443Z,100.00
2023-05-14T23:33:04.839Z,100.00
2023-05-14T23:35:52.043Z,100.00
2023-05-14T23:38:37.618Z,100.00
2023-05-14T23:41:22.794Z,100.00
2023-05-14T23:44:07.720Z,100.00
2023-05-14T23:46:53.036Z,100.00
2023-05-14T23:49:40.775Z,100.00
2023-05-14T23:52:25.733Z,100.00
2023-05-14T23:55:10.714Z,100.00
2023-05-14T23:57:55.712Z,100.00
